This is the latest recevied weather packets stored in our database for station/object OK1ZXS-6. If no packets are shown the sender has not sent any weather packets the latest 1 day(s).
| Time | Temp. | Humidity | Pressure | Rain* | Wind** | Luminosity | Snow |
|---|---|---|---|---|---|---|---|
| 1777980242 | 23.89° C | 43% | - | - | 0.89 m/s, 225° | - | - |
| 1777979341 | 23.33° C | 45% | - | - | 0.89 m/s, 225° | - | - |
| 1777978442 | 22.78° C | 43% | - | - | 0.45 m/s, 67° | - | - |
| 1777977541 | 21.67° C | 46% | - | - | 0.89 m/s, 67° | - | - |
| 1777976645 | 21.67° C | 47% | - | - | 0.45 m/s, 225° | - | - |
| 1777975742 | 21.11° C | 49% | - | - | 0.45 m/s, 112° | - | - |
| 1777974843 | 21.67° C | 49% | - | - | 0.45 m/s, 225° | - | - |
| 1777973942 | 21.11° C | 50% | - | - | 0.45 m/s, 225° | - | - |
| 1777973044 | 21.11° C | 48% | - | - | 0.89 m/s, 225° | - | - |
| 1777972142 | 21.11° C | 49% | - | - | 0.89 m/s, 225° | - | - |
| 1777971242 | 21.11° C | 49% | - | - | 0.45 m/s, 225° | - | - |
| 1777970342 | 21.11° C | 46% | - | - | 0.45 m/s, 67° | - | - |
| 1777969442 | 21.11° C | 48% | - | - | 0 m/s | - | - |
| 1777968541 | 21.11° C | 48% | - | - | 0 m/s | - | - |
| 1777967643 | 21.11° C | 50% | - | - | 0 m/s | - | - |
| 1777966742 | 20.56° C | 48% | - | - | 0 m/s | - | - |
| 1777965843 | 20.56° C | 49% | - | - | 0 m/s | - | - |
| 1777964941 | 20° C | 51% | - | - | 0 m/s | - | - |
| 1777964042 | 19.44° C | 48% | - | - | 0.89 m/s, 90° | - | - |
| 1777963141 | 18.89° C | 48% | - | - | 0.45 m/s, 112° | - | - |
| 1777962243 | 19.44° C | 52% | - | - | 0.45 m/s, 112° | - | - |
| 1777961344 | 18.33° C | 52% | - | - | 0.45 m/s, 112° | - | - |
| 1777960442 | 18.33° C | 51% | - | - | 0.45 m/s, 112° | - | - |
| 1777959548 | 18.89° C | 52% | - | - | 0 m/s | - | - |
| 1777958642 | 15.56° C | 57% | - | - | 0.45 m/s, 112° | - | - |
* Rain since midnight (hover to see other rain measurements)
** Current wind speed in m/s (hover to see current wind gust speed)